Time;durP1;ratioP1;P1;durP2;ratioP2;P2;SDS_P1;SDS_P2;PMS_P1;PMS_P2;Temp;Humidity;BMP_temperature;BMP_pressure;BME280_temperature;BME280_humidity;BME280_pressure;Samples;Min_cycle;Max_cycle;Signal;HPM_P1;HPM_P2
2021/04/18 00:01:19;;;;;;;8.60;4.70;;;8.50;99.90;;;;;;5087210;28;20066;-44
2021/04/18 00:03:44;;;;;;;10.38;5.15;;;8.50;99.90;;;;;;5087156;28;20507;-45
2021/04/18 00:06:10;;;;;;;16.83;5.60;;;8.50;99.90;;;;;;5068468;28;20066;-44
2021/04/18 00:08:35;;;;;;;13.63;5.53;;;8.60;99.90;;;;;;5086730;28;20106;-44
2021/04/18 00:11:01;;;;;;;13.43;6.05;;;8.50;99.90;;;;;;5087281;28;20111;-45
2021/04/18 00:13:26;;;;;;;13.32;6.70;;;8.50;99.90;;;;;;5089269;28;20043;-43
2021/04/18 00:15:52;;;;;;;14.75;6.28;;;8.50;99.90;;;;;;5090767;28;20036;-47
2021/04/18 00:18:17;;;;;;;16.15;6.05;;;8.50;99.90;;;;;;5090255;28;20082;-45
2021/04/18 00:20:43;;;;;;;11.75;5.18;;;8.40;99.90;;;;;;5072658;28;20446;-45
2021/04/18 00:23:08;;;;;;;9.23;5.30;;;8.40;99.90;;;;;;5090880;28;20032;-48
2021/04/18 00:25:34;;;;;;;9.73;5.07;;;8.40;99.90;;;;;;5090336;28;20035;-44
2021/04/18 00:27:59;;;;;;;14.57;6.05;;;8.50;99.90;;;;;;5090528;28;20109;-44
2021/04/18 00:30:25;;;;;;;12.57;6.05;;;8.40;99.90;;;;;;5090875;28;20032;-44
2021/04/18 00:32:51;;;;;;;11.05;5.50;;;8.40;99.90;;;;;;5090753;28;20036;-45
2021/04/18 00:35:19;;;;;;;11.05;5.38;;;8.40;99.90;;;;;;5090602;28;20047;-44
2021/04/18 00:37:45;;;;;;;8.32;4.97;;;8.40;99.90;;;;;;5089770;28;20100;-45
2021/04/18 00:40:18;;;;;;;8.23;5.35;;;8.40;99.90;;;;;;5090457;28;20052;-44
2021/04/18 00:42:44;;;;;;;14.15;6.20;;;8.40;99.90;;;;;;5090495;28;20020;-45
2021/04/18 00:45:11;;;;;;;10.60;5.03;;;8.40;99.90;;;;;;5090419;28;20047;-46
2021/04/18 00:47:42;;;;;;;14.25;5.93;;;8.40;99.90;;;;;;5089647;28;20363;-45
2021/04/18 00:50:10;;;;;;;7.25;4.97;;;8.40;99.90;;;;;;5090349;28;20020;-44
2021/04/18 00:52:36;;;;;;;13.88;5.97;;;8.40;99.90;;;;;;5090219;28;20031;-44
2021/04/18 00:55:03;;;;;;;11.98;6.18;;;8.40;99.90;;;;;;5089660;28;20016;-45
2021/04/18 00:57:28;;;;;;;10.35;5.40;;;8.50;99.90;;;;;;5089600;28;20061;-45
2021/04/18 00:59:55;;;;;;;9.43;5.65;;;8.50;99.90;;;;;;5090126;28;20852;-44
2021/04/18 01:02:20;;;;;;;16.30;6.18;;;8.40;99.90;;;;;;5090258;28;20267;-44
2021/04/18 01:04:46;;;;;;;14.75;5.75;;;8.40;99.90;;;;;;5089927;28;20465;-45
2021/04/18 01:07:12;;;;;;;15.25;5.75;;;8.30;99.90;;;;;;5089961;28;20020;-44
2021/04/18 01:09:37;;;;;;;14.05;6.03;;;8.30;99.90;;;;;;5089532;28;20487;-45
2021/04/18 01:12:03;;;;;;;11.60;5.50;;;8.30;99.90;;;;;;5090049;28;20024;-44
2021/04/18 01:14:28;;;;;;;13.63;5.70;;;8.30;99.90;;;;;;5089438;28;20434;-45
2021/04/18 01:16:54;;;;;;;14.30;6.00;;;8.30;99.90;;;;;;5089626;28;20242;-46
2021/04/18 01:19:19;;;;;;;11.95;5.50;;;8.20;99.90;;;;;;5089011;28;20113;-45
2021/04/18 01:21:45;;;;;;;11.68;5.18;;;8.20;99.90;;;;;;5089791;28;20016;-45
2021/04/18 01:24:11;;;;;;;10.25;5.45;;;8.20;99.90;;;;;;5089205;28;20035;-44
2021/04/18 01:26:36;;;;;;;10.35;5.65;;;8.20;99.90;;;;;;5089481;28;20104;-45
2021/04/18 01:29:04;;;;;;;10.10;5.80;;;8.30;99.90;;;;;;5089355;28;20342;-46
2021/04/18 01:31:30;;;;;;;12.50;5.43;;;8.20;99.90;;;;;;5089466;28;20098;-45
2021/04/18 01:33:56;;;;;;;11.80;6.00;;;8.20;99.90;;;;;;5089236;28;20497;-47
2021/04/18 01:36:22;;;;;;;16.15;6.38;;;8.30;99.90;;;;;;5089158;28;20384;-47
2021/04/18 01:38:48;;;;;;;11.90;6.68;;;8.20;99.90;;;;;;5088416;28;20163;-44
2021/04/18 01:41:13;;;;;;;12.65;6.43;;;8.10;99.90;;;;;;5088941;28;20024;-44
2021/04/18 01:43:40;;;;;;;13.10;6.97;;;8.10;99.90;;;;;;5089073;28;20035;-43
2021/04/18 01:46:06;;;;;;;12.55;6.50;;;8.00;99.90;;;;;;5089767;28;20028;-44
2021/04/18 01:48:32;;;;;;;13.90;6.07;;;8.00;99.90;;;;;;5088297;28;20392;-44
2021/04/18 01:51:06;;;;;;;14.48;6.90;;;8.00;99.90;;;;;;5089067;28;20028;-44
2021/04/18 01:53:31;;;;;;;13.98;6.28;;;8.00;99.90;;;;;;5089045;28;20032;-45
2021/04/18 01:55:57;;;;;;;9.60;6.10;;;8.00;99.90;;;;;;5089498;28;20484;-46
2021/04/18 01:58:22;;;;;;;14.13;7.68;;;8.00;99.90;;;;;;5086819;28;20566;-45
2021/04/18 02:00:48;;;;;;;13.25;7.43;;;8.00;99.90;;;;;;5089012;28;20031;-45
2021/04/18 02:03:13;;;;;;;20.70;8.23;;;8.00;99.90;;;;;;5088886;28;20028;-44
2021/04/18 02:05:39;;;;;;;13.85;6.85;;;8.00;99.90;;;;;;5088569;28;20116;-44
2021/04/18 02:08:05;;;;;;;11.38;6.82;;;7.90;99.90;;;;;;5088079;28;20520;-45
2021/04/18 02:10:30;;;;;;;19.15;7.32;;;7.80;99.90;;;;;;5088673;28;20024;-44
2021/04/18 02:12:56;;;;;;;14.48;7.63;;;7.70;99.90;;;;;;5088441;28;20031;-44
2021/04/18 02:15:21;;;;;;;13.13;7.18;;;7.70;99.90;;;;;;5089020;28;20030;-44
2021/04/18 02:17:47;;;;;;;14.38;7.40;;;7.70;99.90;;;;;;5087659;28;20149;-44
2021/04/18 02:20:16;;;;;;;16.45;8.55;;;7.70;99.90;;;;;;5088165;28;20378;-43
2021/04/18 02:22:43;;;;;;;14.95;7.68;;;7.70;99.90;;;;;;5089234;28;20103;-44
2021/04/18 02:25:09;;;;;;;12.88;7.18;;;7.70;99.90;;;;;;5088386;28;20066;-44
2021/04/18 02:27:35;;;;;;;25.70;9.80;;;7.70;99.90;;;;;;5088019;28;20263;-45
2021/04/18 02:30:00;;;;;;;12.18;7.40;;;7.70;99.90;;;;;;5088230;28;20375;-45
2021/04/18 02:32:26;;;;;;;18.50;7.75;;;7.60;99.90;;;;;;5070049;28;20082;-45
2021/04/18 02:34:51;;;;;;;13.40;7.43;;;7.70;99.90;;;;;;5087517;28;20036;-45
2021/04/18 02:37:17;;;;;;;15.77;8.00;;;7.60;99.90;;;;;;5087477;28;20054;-44
2021/04/18 02:39:43;;;;;;;18.75;9.00;;;7.60;99.90;;;;;;5087734;28;20380;-46
2021/04/18 02:42:08;;;;;;;17.48;8.57;;;7.50;99.90;;;;;;5088375;28;20038;-45
2021/04/18 02:44:34;;;;;;;18.50;8.85;;;7.50;99.90;;;;;;5088430;28;20039;-45
2021/04/18 02:46:59;;;;;;;18.63;8.70;;;7.60;99.90;;;;;;5087989;28;20412;-46
2021/04/18 02:49:25;;;;;;;18.88;9.18;;;7.50;99.90;;;;;;5087266;28;20032;-47
2021/04/18 02:51:50;;;;;;;17.42;9.30;;;7.60;99.90;;;;;;5087881;28;20351;-45
2021/04/18 02:54:16;;;;;;;24.13;10.63;;;7.50;99.90;;;;;;5069466;28;20020;-46
2021/04/18 02:56:42;;;;;;;20.88;10.20;;;7.50;99.90;;;;;;5087836;28;20034;-45
2021/04/18 02:59:07;;;;;;;21.40;10.20;;;7.50;99.90;;;;;;5087051;28;20275;-46
2021/04/18 03:01:34;;;;;;;20.83;9.15;;;7.60;99.90;;;;;;5087668;28;20489;-44
2021/04/18 03:04:00;;;;;;;15.18;9.10;;;7.60;99.90;;;;;;5087551;28;20239;-45
2021/04/18 03:06:25;;;;;;;25.30;9.77;;;7.60;99.90;;;;;;5069540;28;20085;-45
2021/04/18 03:08:50;;;;;;;18.83;9.23;;;7.60;99.90;;;;;;5086487;28;20035;-45
2021/04/18 03:11:18;;;;;;;22.40;11.25;;;7.70;99.90;;;;;;5052904;28;20024;-46
2021/04/18 03:13:45;;;;;;;16.95;9.88;;;7.70;99.90;;;;;;5088110;28;20035;-45
2021/04/18 03:16:11;;;;;;;21.27;9.63;;;7.70;99.90;;;;;;5087174;28;20024;-44
2021/04/18 03:18:36;;;;;;;23.42;10.57;;;7.60;99.90;;;;;;5086891;28;20035;-44
2021/04/18 03:21:02;;;;;;;21.48;10.77;;;7.60;99.90;;;;;;5087570;28;20271;-45
2021/04/18 03:23:28;;;;;;;16.65;9.60;;;7.60;99.90;;;;;;5087497;28;20030;-46
2021/04/18 03:25:53;;;;;;;16.75;9.27;;;7.60;99.90;;;;;;5087181;28;20028;-51
2021/04/18 03:28:19;;;;;;;20.38;10.88;;;7.60;99.90;;;;;;5086857;28;20037;-45
2021/04/18 03:30:44;;;;;;;18.38;10.68;;;7.60;99.90;;;;;;5087699;28;20036;-46
2021/04/18 03:33:11;;;;;;;15.60;9.38;;;7.60;99.90;;;;;;5086549;28;20525;-46
2021/04/18 03:35:37;;;;;;;22.38;11.23;;;7.60;99.90;;;;;;5087412;28;20410;-45
2021/04/18 03:38:03;;;;;;;17.80;10.57;;;7.50;99.90;;;;;;5085854;28;20020;-45
2021/04/18 03:40:30;;;;;;;22.42;11.70;;;7.50;99.90;;;;;;5086249;28;20458;-45
2021/04/18 03:42:56;;;;;;;20.30;10.98;;;7.50;99.90;;;;;;5083934;28;20111;-45
2021/04/18 03:45:22;;;;;;;21.40;10.98;;;7.50;99.90;;;;;;5086427;28;20046;-45
2021/04/18 03:47:49;;;;;;;22.55;11.55;;;7.50;99.90;;;;;;5088504;28;20025;-42
2021/04/18 03:50:15;;;;;;;21.55;11.82;;;7.50;99.90;;;;;;5090537;28;20020;-43
2021/04/18 03:52:40;;;;;;;24.50;11.75;;;7.50;99.90;;;;;;5090638;28;20488;-45
2021/04/18 03:55:06;;;;;;;22.65;12.27;;;7.40;99.90;;;;;;5090692;28;20020;-42
2021/04/18 03:57:32;;;;;;;25.65;13.40;;;7.40;99.90;;;;;;5090509;28;20268;-42
2021/04/18 03:59:57;;;;;;;27.58;13.63;;;7.30;99.90;;;;;;5091067;28;20024;-44
2021/04/18 04:02:23;;;;;;;19.60;12.60;;;7.30;99.90;;;;;;5090740;28;20024;-43
2021/04/18 04:04:48;;;;;;;21.20;12.98;;;7.30;99.90;;;;;;5091120;28;20046;-43
2021/04/18 04:07:14;;;;;;;23.33;13.40;;;7.40;99.90;;;;;;5096478;28;20395;-44
2021/04/18 04:09:40;;;;;;;24.58;13.77;;;7.40;99.90;;;;;;5100810;28;20479;-43
2021/04/18 04:12:06;;;;;;;30.05;14.40;;;7.40;99.90;;;;;;5101190;28;20081;-43
2021/04/18 04:14:31;;;;;;;23.70;13.75;;;7.40;99.90;;;;;;5099763;28;20016;-44
2021/04/18 04:16:57;;;;;;;25.88;13.15;;;7.50;99.90;;;;;;5082527;28;20032;-43
2021/04/18 04:19:22;;;;;;;25.13;13.93;;;7.50;99.90;;;;;;5099542;28;20024;-43
2021/04/18 04:21:48;;;;;;;26.58;14.32;;;7.40;99.90;;;;;;5099591;28;20571;-44
2021/04/18 04:24:14;;;;;;;25.67;14.15;;;7.40;99.90;;;;;;5100472;28;20107;-45
2021/04/18 04:26:39;;;;;;;24.10;13.95;;;7.40;99.90;;;;;;5081652;28;20112;-43
2021/04/18 04:29:05;;;;;;;22.67;13.73;;;7.40;99.90;;;;;;5099294;28;20102;-44
2021/04/18 04:31:30;;;;;;;25.20;12.70;;;7.50;99.90;;;;;;5073584;28;20370;-44
2021/04/18 04:33:56;;;;;;;27.55;13.38;;;7.50;99.90;;;;;;5089607;28;20032;-43
2021/04/18 04:36:23;;;;;;;19.70;13.45;;;7.50;99.90;;;;;;5089394;28;20449;-44
2021/04/18 04:38:49;;;;;;;25.35;14.07;;;7.60;99.90;;;;;;5091482;28;20028;-44
2021/04/18 04:41:15;;;;;;;19.98;12.95;;;7.60;99.90;;;;;;5077771;28;20493;-44
2021/04/18 04:43:43;;;;;;;24.67;13.98;;;7.60;99.90;;;;;;5095927;28;20073;-44
2021/04/18 04:46:09;;;;;;;21.33;12.40;;;7.60;99.90;;;;;;5094675;28;20122;-44
2021/04/18 04:48:34;;;;;;;20.55;12.85;;;7.60;99.90;;;;;;5071598;28;20561;-44
2021/04/18 04:51:00;;;;;;;23.67;13.55;;;7.60;99.90;;;;;;5090314;28;20036;-44
2021/04/18 04:53:25;;;;;;;31.70;14.85;;;7.60;99.90;;;;;;5089508;28;20032;-45
2021/04/18 04:55:51;;;;;;;18.33;12.57;;;7.60;99.90;;;;;;5089882;28;20104;-44
2021/04/18 04:58:17;;;;;;;27.45;13.65;;;7.60;99.90;;;;;;5088911;28;20485;-44
2021/04/18 05:00:43;;;;;;;27.92;13.73;;;7.60;99.90;;;;;;5083009;28;20024;-44
2021/04/18 05:03:10;;;;;;;21.77;12.75;;;7.70;99.90;;;;;;5088684;28;20028;-44
2021/04/18 05:05:35;;;;;;;22.83;13.27;;;7.70;99.90;;;;;;5090122;28;20473;-49
2021/04/18 05:08:01;;;;;;;24.92;13.82;;;7.70;99.90;;;;;;5089342;28;20028;-44
2021/04/18 05:10:27;;;;;;;26.45;15.27;;;7.70;99.90;;;;;;5089971;28;20013;-44
2021/04/18 05:12:52;;;;;;;26.88;14.73;;;7.70;99.90;;;;;;5090072;28;20416;-44
2021/04/18 05:15:21;;;;;;;24.67;14.82;;;7.70;99.90;;;;;;5089804;28;20118;-44
2021/04/18 05:17:47;;;;;;;27.30;15.30;;;7.70;99.90;;;;;;5089277;28;20510;-44
2021/04/18 05:20:13;;;;;;;25.10;14.40;;;7.80;99.90;;;;;;5089879;28;20036;-44
2021/04/18 05:22:38;;;;;;;24.90;14.27;;;7.80;99.90;;;;;;5094851;28;20012;-45
2021/04/18 05:25:04;;;;;;;25.48;15.07;;;7.70;99.90;;;;;;5088526;28;20028;-44
2021/04/18 05:27:30;;;;;;;21.70;14.25;;;7.70;99.90;;;;;;5087899;28;20544;-44
2021/04/18 05:29:55;;;;;;;24.70;14.88;;;7.70;99.90;;;;;;5089013;28;20064;-45
2021/04/18 05:32:20;;;;;;;21.25;13.70;;;7.60;99.90;;;;;;5088834;28;20417;-43
2021/04/18 05:34:48;;;;;;;20.45;13.40;;;7.60;99.90;;;;;;5087843;28;20099;-43
2021/04/18 05:37:14;;;;;;;21.50;13.45;;;7.60;99.90;;;;;;5086100;28;20020;-44
2021/04/18 05:39:39;;;;;;;25.27;13.18;;;7.70;99.90;;;;;;5087676;28;20022;-44
2021/04/18 05:42:05;;;;;;;20.30;13.00;;;7.80;99.90;;;;;;5088006;28;20024;-44
2021/04/18 05:44:30;;;;;;;27.08;12.88;;;7.70;99.90;;;;;;5088207;28;20417;-45
2021/04/18 05:46:56;;;;;;;22.27;13.38;;;7.80;99.90;;;;;;5070606;28;20079;-46
2021/04/18 05:49:21;;;;;;;23.65;13.88;;;7.80;99.90;;;;;;5069838;28;20107;-44
2021/04/18 05:51:47;;;;;;;22.90;13.90;;;7.80;99.90;;;;;;5088256;28;20035;-45
2021/04/18 05:54:12;;;;;;;27.25;14.55;;;7.90;99.90;;;;;;5088262;28;20428;-48
2021/04/18 05:56:39;;;;;;;23.52;13.68;;;7.90;99.90;;;;;;5087667;28;20100;-45
2021/04/18 05:59:04;;;;;;;24.50;15.18;;;7.90;99.90;;;;;;5087519;28;20020;-46
2021/04/18 06:01:30;;;;;;;25.17;14.57;;;7.90;99.90;;;;;;5088704;28;20069;-45
2021/04/18 06:03:56;;;;;;;24.13;14.13;;;7.80;99.90;;;;;;5088483;28;20323;-45
2021/04/18 06:06:27;;;;;;;23.17;13.50;;;7.80;99.90;;;;;;5088346;28;20032;-46
2021/04/18 06:08:54;;;;;;;19.92;13.13;;;7.90;99.90;;;;;;5087622;28;20088;-45
2021/04/18 06:11:20;;;;;;;29.17;15.07;;;7.90;99.90;;;;;;5086943;28;20037;-45
2021/04/18 06:13:46;;;;;;;31.35;14.55;;;7.90;99.90;;;;;;5088354;28;20038;-45
2021/04/18 06:16:12;;;;;;;23.65;13.60;;;7.90;99.90;;;;;;5088305;28;20381;-44
2021/04/18 06:18:37;;;;;;;20.85;13.48;;;7.90;99.90;;;;;;5087485;28;20028;-44
2021/04/18 06:21:04;;;;;;;24.05;14.40;;;8.00;99.90;;;;;;5088069;28;20020;-45
2021/04/18 06:23:30;;;;;;;22.10;14.35;;;8.00;99.90;;;;;;5087828;28;20032;-44
2021/04/18 06:25:56;;;;;;;22.52;13.65;;;8.00;99.90;;;;;;5087664;28;20054;-45
2021/04/18 06:28:22;;;;;;;20.48;12.57;;;8.00;99.90;;;;;;5087148;28;20032;-45
2021/04/18 06:30:53;;;;;;;20.80;14.93;;;8.00;99.90;;;;;;5063526;28;20411;-44
2021/04/18 06:33:19;;;;;;;23.13;14.52;;;8.10;99.90;;;;;;5062978;28;20090;-45
2021/04/18 06:35:45;;;;;;;26.02;14.52;;;8.10;99.90;;;;;;5063780;28;20027;-44
2021/04/18 06:38:12;;;;;;;24.58;13.63;;;8.00;99.90;;;;;;5063427;28;20017;-45
2021/04/18 06:40:37;;;;;;;28.25;14.80;;;8.10;99.90;;;;;;5064140;28;20108;-44
2021/04/18 06:43:09;;;;;;;21.00;13.98;;;8.00;99.90;;;;;;5064436;28;20579;-44
2021/04/18 06:45:35;;;;;;;24.70;14.57;;;8.10;99.90;;;;;;5064423;28;20025;-44
2021/04/18 06:48:01;;;;;;;24.83;14.63;;;8.10;99.90;;;;;;5063024;28;20510;-44
2021/04/18 06:50:27;;;;;;;19.55;12.35;;;8.10;99.90;;;;;;5062578;28;20029;-46
2021/04/18 06:52:53;;;;;;;24.73;14.43;;;8.20;99.90;;;;;;5063955;28;20535;-45
2021/04/18 06:55:18;;;;;;;27.10;14.23;;;8.20;99.90;;;;;;5063482;28;20020;-44
2021/04/18 06:57:44;;;;;;;25.25;14.20;;;8.30;99.90;;;;;;5063273;28;20028;-43
2021/04/18 07:00:12;;;;;;;24.40;14.85;;;8.30;99.90;;;;;;5063979;28;20017;-44
2021/04/18 07:02:39;;;;;;;25.77;14.23;;;8.40;99.90;;;;;;5062201;28;20107;-45
2021/04/18 07:05:09;;;;;;;24.40;13.43;;;8.50;99.90;;;;;;5061844;28;20119;-44
2021/04/18 07:07:43;;;;;;;25.45;14.07;;;8.40;99.90;;;;;;5055821;28;20036;-44
2021/04/18 07:10:13;;;;;;;26.35;14.25;;;8.40;99.90;;;;;;5043101;28;20497;-44
2021/04/18 07:12:39;;;;;;;21.67;13.47;;;8.40;99.90;;;;;;5042336;28;20322;-44
2021/04/18 07:15:06;;;;;;;21.70;13.20;;;8.50;99.90;;;;;;5044180;28;20847;-44
2021/04/18 07:17:32;;;;;;;22.98;13.50;;;8.60;99.90;;;;;;5043448;28;20035;-45
2021/04/18 07:20:15;;;;;;;25.13;13.70;;;8.60;99.90;;;;;;5043554;28;20037;-45
2021/04/18 07:22:40;;;;;;;23.35;12.90;;;8.70;99.90;;;;;;5044120;28;20021;-45
2021/04/18 07:25:07;;;;;;;23.20;12.35;;;8.80;99.90;;;;;;5043552;28;20029;-44
2021/04/18 07:27:47;;;;;;;21.55;11.82;;;8.80;99.90;;;;;;5051085;28;20021;-44
2021/04/18 07:30:14;;;;;;;23.05;13.40;;;8.80;99.90;;;;;;5061743;28;20507;-44
2021/04/18 07:32:40;;;;;;;25.13;13.90;;;8.90;99.90;;;;;;5062277;28;20479;-44
2021/04/18 07:35:06;;;;;;;20.13;12.27;;;9.00;99.90;;;;;;5062923;28;20027;-44
2021/04/18 07:37:34;;;;;;;23.15;12.35;;;9.10;99.90;;;;;;5060897;28;20064;-44
2021/04/18 07:40:02;;;;;;;23.27;14.23;;;9.20;99.90;;;;;;5062376;28;20414;-45
2021/04/18 07:42:42;;;;;;;28.10;14.25;;;9.40;99.90;;;;;;5049463;28;20029;-44
2021/04/18 07:45:10;;;;;;;25.50;13.18;;;9.50;99.90;;;;;;5048617;28;20119;-44
2021/04/18 07:47:39;;;;;;;20.90;13.32;;;9.70;99.90;;;;;;5049310;28;20029;-44
2021/04/18 07:50:07;;;;;;;26.42;13.57;;;10.00;99.90;;;;;;5048298;28;20390;-44
2021/04/18 07:52:35;;;;;;;24.23;13.82;;;10.20;99.90;;;;;;5050369;28;20025;-44
2021/04/18 07:55:02;;;;;;;25.83;12.40;;;10.20;99.90;;;;;;5050089;28;20024;-45
2021/04/18 07:57:28;;;;;;;19.85;12.32;;;10.40;99.90;;;;;;5049556;28;20017;-44
2021/04/18 07:59:54;;;;;;;18.88;11.18;;;10.60;99.90;;;;;;5050020;28;20235;-46
2021/04/18 08:02:21;;;;;;;20.58;12.13;;;10.90;99.90;;;;;;5049925;28;20025;-45
2021/04/18 08:04:50;;;;;;;19.45;11.77;;;11.10;99.90;;;;;;5050618;28;20055;-45
2021/04/18 08:07:16;;;;;;;24.60;13.07;;;11.10;99.90;;;;;;5049310;28;20025;-46
2021/04/18 08:09:42;;;;;;;21.67;12.57;;;11.10;99.90;;;;;;5047374;28;20098;-45
2021/04/18 08:12:15;;;;;;;20.88;12.20;;;11.20;99.90;;;;;;5048662;28;20036;-45
2021/04/18 08:14:43;;;;;;;23.63;14.07;;;11.10;99.90;;;;;;5047386;28;20104;-45
2021/04/18 08:17:14;;;;;;;28.88;15.35;;;11.00;99.90;;;;;;5049507;28;20078;-44
2021/04/18 08:19:57;;;;;;;21.75;15.45;;;11.00;99.90;;;;;;5048649;28;20044;-45
2021/04/18 08:22:23;;;;;;;21.50;14.65;;;11.00;99.90;;;;;;5049585;28;20029;-46
2021/04/18 08:25:09;;;;;;;26.48;15.77;;;11.00;99.90;;;;;;5048525;28;20032;-45
2021/04/18 08:28:12;;;;;;;24.27;15.18;;;11.30;99.90;;;;;;5048723;28;20222;-47
2021/04/18 08:31:07;;;;;;;23.38;13.10;;;11.80;99.90;;;;;;5049887;28;20025;-46
2021/04/18 08:33:39;;;;;;;20.33;12.77;;;11.70;99.90;;;;;;5053021;28;20025;-45
2021/04/18 08:36:19;;;;;;;19.92;12.63;;;11.70;99.90;;;;;;5065430;28;20490;-45
2021/04/18 08:39:17;;;;;;;17.35;11.65;;;11.50;99.90;;;;;;5056576;28;20032;-45
2021/04/18 08:41:51;;;;;;;22.25;11.85;;;11.50;99.90;;;;;;5058250;28;20032;-45
2021/04/18 08:44:29;;;;;;;17.10;10.73;;;12.00;99.90;;;;;;5053759;28;20068;-45
2021/04/18 08:47:09;;;;;;;17.33;10.57;;;12.70;99.90;;;;;;5051240;28;20027;-46
2021/04/18 08:49:38;;;;;;;22.58;10.80;;;13.70;99.90;;;;;;5054522;28;20188;-46
2021/04/18 08:52:10;;;;;;;15.50;10.63;;;14.60;99.90;;;;;;5053079;28;20426;-45
2021/04/18 08:54:39;;;;;;;18.45;9.75;;;14.70;99.30;;;;;;5067186;28;20028;-45
2021/04/18 08:57:09;;;;;;;19.30;9.95;;;15.50;96.60;;;;;;5068512;28;20071;-46
2021/04/18 08:59:35;;;;;;;18.30;10.55;;;16.30;94.00;;;;;;5058601;28;20029;-47
2021/04/18 09:02:11;;;;;;;14.32;8.85;;;17.50;83.20;;;;;;5048103;28;20047;-45
2021/04/18 09:04:41;;;;;;;14.25;8.70;;;18.10;82.30;;;;;;5048394;28;20017;-46
2021/04/18 09:07:09;;;;;;;14.40;9.38;;;17.70;78.20;;;;;;5047042;28;20041;-47
2021/04/18 09:09:36;;;;;;;15.75;9.88;;;17.70;79.00;;;;;;5036098;28;20102;-46
2021/04/18 09:12:02;;;;;;;17.13;9.15;;;17.20;78.90;;;;;;5046572;28;20024;-44
2021/04/18 09:14:36;;;;;;;14.35;9.80;;;16.80;80.90;;;;;;5047895;28;20021;-46
2021/04/18 09:17:22;;;;;;;20.88;11.07;;;16.50;82.30;;;;;;5047982;28;20024;-46
2021/04/18 09:19:50;;;;;;;15.55;9.95;;;16.50;85.00;;;;;;5047952;28;20086;-44
2021/04/18 09:22:18;;;;;;;16.80;9.20;;;16.50;84.10;;;;;;5048422;28;20028;-45
2021/04/18 09:24:47;;;;;;;18.15;10.13;;;16.50;86.20;;;;;;5048209;28;20025;-44
2021/04/18 09:27:18;;;;;;;13.65;9.85;;;16.90;87.90;;;;;;5047550;28;20601;-44
2021/04/18 09:30:23;;;;;;;15.77;9.85;;;17.00;83.50;;;;;;5046978;28;20033;-45
2021/04/18 09:32:54;;;;;;;14.70;9.80;;;16.50;84.00;;;;;;5046431;28;20033;-45
2021/04/18 09:35:23;;;;;;;;;;;15.60;88.40;;;;;;5046688;28;20017;-45
2021/04/18 09:37:53;;;;;;;19.30;11.48;;;14.80;91.40;;;;;;5044764;28;20374;-44
2021/04/18 09:40:23;;;;;;;16.55;9.48;;;14.30;91.70;;;;;;5047517;28;20029;-46
2021/04/18 09:42:50;;;;;;;19.08;11.75;;;13.50;96.10;;;;;;5046251;28;20041;-47
2021/04/18 09:45:18;;;;;;;18.40;10.82;;;13.40;99.90;;;;;;5048029;28;20052;-46
2021/04/18 09:47:46;;;;;;;16.65;9.75;;;13.50;99.90;;;;;;5045739;28;20572;-46
2021/04/18 09:50:34;;;;;;;17.85;11.13;;;14.00;99.50;;;;;;5047502;28;20036;-47
2021/04/18 09:53:25;;;;;;;19.77;11.20;;;14.40;97.60;;;;;;5047250;28;20028;-45
2021/04/18 09:55:56;;;;;;;19.60;10.38;;;14.20;97.20;;;;;;5046967;28;20071;-44
2021/04/18 09:58:30;;;;;;;21.70;11.48;;;14.00;98.70;;;;;;5046885;28;20028;-48
2021/04/18 10:00:58;;;;;;;17.63;10.18;;;14.40;98.30;;;;;;5045539;28;20516;-45
2021/04/18 10:03:36;;;;;;;21.77;10.48;;;14.90;96.80;;;;;;5047116;28;20028;-46
2021/04/18 10:06:02;;;;;;;21.67;9.98;;;16.30;95.80;;;;;;5047517;28;20031;-45
2021/04/18 10:08:31;;;;;;;12.98;7.72;;;17.70;87.40;;;;;;5046631;28;20436;-46
2021/04/18 10:11:18;;;;;;;15.27;9.23;;;19.00;83.20;;;;;;5047151;28;20028;-46
2021/04/18 10:13:54;;;;;;;12.98;9.23;;;19.00;74.30;;;;;;5047059;28;20037;-46
2021/04/18 10:16:40;;;;;;;10.68;7.20;;;21.00;65.80;;;;;;5046860;28;20052;-46
2021/04/18 10:19:22;;;;;;;11.38;7.82;;;21.30;64.10;;;;;;5046381;28;20021;-48
2021/04/18 10:22:08;;;;;;;10.98;8.77;;;22.50;58.10;;;;;;5046525;28;20407;-47
2021/04/18 10:24:38;;;;;;;12.80;7.95;;;22.10;59.90;;;;;;5047084;28;20021;-46
2021/04/18 10:27:07;;;;;;;8.13;7.15;;;22.10;56.10;;;;;;5047094;28;20021;-48
2021/04/18 10:29:33;;;;;;;13.43;9.05;;;22.00;57.70;;;;;;5046244;28;20127;-47
2021/04/18 10:31:59;;;;;;;11.55;7.97;;;22.40;55.60;;;;;;5046761;28;20029;-47
2021/04/18 10:34:26;;;;;;;12.05;8.10;;;22.70;55.50;;;;;;5046153;28;20359;-45
2021/04/18 10:36:53;;;;;;;12.10;8.23;;;23.10;52.70;;;;;;5044642;28;20426;-47
2021/04/18 10:39:19;;;;;;;11.85;9.27;;;22.20;54.20;;;;;;5044251;28;20214;-45
2021/04/18 10:41:45;;;;;;;10.70;7.72;;;22.10;53.80;;;;;;5045378;28;20021;-48
2021/04/18 10:44:15;;;;;;;11.25;8.20;;;22.60;56.50;;;;;;5045715;28;20029;-47
2021/04/18 10:46:48;;;;;;;9.65;7.13;;;22.80;52.80;;;;;;5044268;28;20098;-46
2021/04/18 10:49:14;;;;;;;15.07;9.60;;;22.10;55.40;;;;;;5045963;28;20501;-50
2021/04/18 10:51:40;;;;;;;13.00;7.97;;;22.30;54.40;;;;;;5045750;28;20033;-46
2021/04/18 10:54:07;;;;;;;11.63;8.05;;;21.40;55.80;;;;;;5038752;28;20076;-47
2021/04/18 10:56:32;;;;;;;13.32;8.80;;;21.50;55.60;;;;;;5033856;28;20542;-49
2021/04/18 10:58:58;;;;;;;10.27;7.75;;;20.80;57.50;;;;;;5044571;28;20116;-48
2021/04/18 11:01:25;;;;;;;16.92;9.55;;;20.60;59.70;;;;;;5046433;28;20029;-47
2021/04/18 11:03:50;;;;;;;10.85;7.38;;;21.10;59.90;;;;;;5044071;28;20025;-48
2021/04/18 11:06:16;;;;;;;10.32;7.30;;;22.10;57.10;;;;;;5045533;28;20044;-45
2021/04/18 11:08:41;;;;;;;11.77;8.10;;;23.10;55.50;;;;;;5045567;28;20021;-49
2021/04/18 11:11:07;;;;;;;15.07;8.52;;;23.30;55.20;;;;;;5045009;28;20009;-48
2021/04/18 11:13:33;;;;;;;8.75;6.43;;;23.60;51.90;;;;;;5045666;28;20035;-46
2021/04/18 11:15:58;;;;;;;10.25;7.22;;;23.90;52.50;;;;;;5046517;28;20651;-47
2021/04/18 11:18:24;;;;;;;11.55;7.97;;;24.40;52.30;;;;;;5048989;28;20222;-47
2021/04/18 11:20:49;;;;;;;11.52;6.95;;;24.50;51.40;;;;;;5050548;28;20450;-46
2021/04/18 11:23:14;;;;;;;16.70;8.18;;;24.50;51.20;;;;;;5050444;28;20066;-46
2021/04/18 11:25:40;;;;;;;11.02;7.78;;;24.20;49.90;;;;;;5048710;28;20502;-48
2021/04/18 11:28:05;;;;;;;12.52;8.05;;;23.50;53.00;;;;;;5049555;28;20100;-48
2021/04/18 11:30:31;;;;;;;10.52;7.32;;;23.40;51.80;;;;;;5049466;28;20044;-46
2021/04/18 11:32:57;;;;;;;12.95;7.80;;;22.70;53.20;;;;;;5048609;28;20178;-47
2021/04/18 11:35:22;;;;;;;14.13;8.45;;;22.00;53.50;;;;;;5049258;28;20025;-46
2021/04/18 11:37:48;;;;;;;10.80;7.40;;;21.50;57.20;;;;;;5048817;28;20383;-47
2021/04/18 11:40:15;;;;;;;10.77;7.65;;;21.50;57.80;;;;;;5048625;28;20162;-45
2021/04/18 11:42:45;;;;;;;16.45;8.38;;;21.90;57.30;;;;;;5048945;28;20052;-45
2021/04/18 11:45:11;;;;;;;12.43;8.07;;;22.60;55.50;;;;;;5047843;28;20032;-46
2021/04/18 11:47:37;;;;;;;9.90;7.82;;;22.30;55.10;;;;;;5049375;28;20238;-47
2021/04/18 11:50:03;;;;;;;9.35;6.47;;;22.10;54.70;;;;;;5050172;28;20041;-45
2021/04/18 11:52:28;;;;;;;11.75;5.45;;;21.20;56.00;;;;;;5050081;28;20379;-46
2021/04/18 11:54:54;;;;;;;8.77;6.50;;;20.50;57.70;;;;;;5050169;28;20035;-46
2021/04/18 11:57:19;;;;;;;9.77;6.55;;;19.90;58.70;;;;;;5048873;28;20087;-47
2021/04/18 11:59:45;;;;;;;10.20;6.47;;;19.60;60.90;;;;;;5048364;28;20056;-46
2021/04/18 12:02:10;;;;;;;13.50;7.35;;;19.10;61.20;;;;;;5043113;28;20026;-48
2021/04/18 12:04:36;;;;;;;12.85;7.78;;;19.10;63.20;;;;;;5029910;28;20107;-46
2021/04/18 12:07:01;;;;;;;10.02;7.05;;;19.10;63.20;;;;;;5029829;28;20033;-46
2021/04/18 12:09:27;;;;;;;11.32;8.20;;;18.90;66.10;;;;;;5028892;28;20029;-46
2021/04/18 12:11:53;;;;;;;13.10;8.13;;;18.60;65.10;;;;;;5029181;28;20025;-47
2021/04/18 12:14:18;;;;;;;11.68;8.07;;;18.50;66.10;;;;;;5028631;28;20049;-46
2021/04/18 12:16:44;;;;;;;16.10;8.40;;;18.10;67.30;;;;;;5029718;28;20025;-50
2021/04/18 12:19:10;;;;;;;12.10;7.50;;;17.90;67.80;;;;;;5028412;28;20026;-46
2021/04/18 12:21:35;;;;;;;20.10;8.77;;;17.80;69.50;;;;;;5029764;28;20029;-47
2021/04/18 12:24:01;;;;;;;11.25;8.30;;;18.00;70.30;;;;;;5029841;28;20026;-49
2021/04/18 12:26:26;;;;;;;9.82;6.40;;;18.30;69.50;;;;;;5029108;28;20087;-47
2021/04/18 12:28:53;;;;;;;12.82;7.38;;;18.80;66.80;;;;;;5028237;28;20063;-48
2021/04/18 12:31:19;;;;;;;8.70;6.07;;;18.80;66.50;;;;;;5027982;28;20541;-49
2021/04/18 12:33:45;;;;;;;10.73;6.60;;;18.90;65.70;;;;;;5029202;28;20502;-47
2021/04/18 12:36:11;;;;;;;8.88;6.03;;;18.80;65.60;;;;;;5029347;28;20022;-47
2021/04/18 12:38:37;;;;;;;10.40;5.82;;;18.70;64.60;;;;;;5035784;28;20021;-46
2021/04/18 12:41:03;;;;;;;7.70;5.80;;;18.50;64.90;;;;;;5047411;28;20028;-46